createdAt,value
2018-10-03T00:00:07.980Z,1.30
2018-10-03T00:02:37.351Z,1.53
2018-10-03T00:05:06.870Z,1.47
2018-10-03T00:07:35.005Z,1.43
2018-10-03T00:10:03.531Z,1.27
2018-10-03T00:12:32.222Z,1.17
2018-10-03T00:15:01.098Z,1.47
2018-10-03T00:17:29.477Z,1.37
2018-10-03T00:19:57.778Z,1.30
2018-10-03T00:22:27.314Z,1.30
2018-10-03T00:24:57.009Z,2.08
2018-10-03T00:27:25.550Z,1.32
2018-10-03T00:29:54.260Z,1.63
2018-10-03T00:32:22.406Z,1.77
2018-10-03T00:34:50.662Z,1.70
2018-10-03T00:37:18.777Z,1.40
2018-10-03T00:39:47.444Z,1.30
2018-10-03T00:42:16.281Z,1.80
2018-10-03T00:44:45.197Z,1.43
2018-10-03T00:47:14.947Z,1.43
2018-10-03T00:49:43.350Z,1.47
2018-10-03T00:52:12.116Z,1.97
2018-10-03T00:54:40.675Z,1.63
2018-10-03T00:57:10.050Z,1.90
2018-10-03T00:59:38.639Z,1.73
2018-10-03T01:02:07.689Z,1.73
2018-10-03T01:04:36.261Z,1.33
2018-10-03T01:07:05.141Z,1.67
2018-10-03T01:09:34.949Z,1.30
2018-10-03T01:12:03.973Z,1.70
2018-10-03T01:14:33.102Z,1.73
2018-10-03T01:17:01.829Z,1.90
2018-10-03T01:19:29.973Z,2.03
2018-10-03T01:21:59.239Z,1.87
2018-10-03T01:24:28.753Z,1.20
2018-10-03T01:26:56.998Z,2.10
2018-10-03T01:30:28.283Z,1.57
2018-10-03T01:32:56.829Z,1.40
2018-10-03T01:35:25.657Z,1.82
2018-10-03T01:37:54.686Z,1.67
2018-10-03T01:40:23.397Z,1.93
2018-10-03T01:42:51.485Z,1.67
2018-10-03T01:45:19.688Z,3.22
2018-10-03T01:47:48.373Z,1.17
2018-10-03T01:50:17.314Z,1.85
2018-10-03T01:52:45.759Z,1.73
2018-10-03T01:55:14.619Z,1.50
2018-10-03T01:57:43.857Z,1.33
2018-10-03T02:00:12.637Z,1.03
2018-10-03T02:02:42.165Z,1.20
2018-10-03T02:05:10.517Z,1.87
2018-10-03T02:07:39.839Z,1.60
2018-10-03T02:10:08.077Z,1.20
2018-10-03T02:12:37.767Z,1.40
2018-10-03T02:15:07.054Z,1.17
2018-10-03T02:17:35.517Z,1.33
2018-10-03T02:20:04.473Z,1.37
2018-10-03T02:22:34.213Z,1.10
2018-10-03T02:25:03.157Z,1.13
2018-10-03T02:27:31.229Z,1.30
2018-10-03T02:30:00.015Z,1.53
2018-10-03T02:32:28.570Z,0.83
2018-10-03T02:34:56.824Z,0.90
2018-10-03T02:37:26.022Z,1.55
2018-10-03T02:39:55.334Z,1.23
2018-10-03T02:42:24.007Z,1.95
2018-10-03T02:44:53.278Z,3.07
2018-10-03T02:47:21.642Z,1.15
2018-10-03T02:49:49.733Z,1.17
2018-10-03T02:52:18.066Z,1.43
2018-10-03T02:54:46.910Z,1.27
2018-10-03T02:57:15.098Z,0.93
2018-10-03T02:59:43.190Z,1.03
2018-10-03T03:02:12.459Z,1.50
2018-10-03T03:04:41.177Z,1.23
2018-10-03T03:07:09.941Z,1.33
2018-10-03T03:09:38.626Z,1.43
2018-10-03T03:12:07.625Z,1.50
2018-10-03T03:14:36.965Z,1.40
2018-10-03T03:17:06.019Z,1.53
2018-10-03T03:19:34.219Z,1.40
2018-10-03T03:22:02.395Z,1.10
2018-10-03T03:24:31.727Z,1.52
2018-10-03T03:27:00.183Z,1.57
2018-10-03T03:29:28.902Z,1.35
2018-10-03T03:31:57.061Z,1.60
2018-10-03T03:34:25.343Z,1.25
2018-10-03T03:36:55.119Z,1.20
2018-10-03T03:39:23.937Z,1.35
2018-10-03T03:41:52.303Z,1.40
2018-10-03T03:44:21.131Z,1.50
2018-10-03T03:46:50.277Z,1.00
2018-10-03T03:49:18.609Z,1.33
2018-10-03T03:51:46.928Z,1.00
2018-10-03T03:54:17.601Z,1.40
2018-10-03T03:56:46.997Z,1.20
2018-10-03T03:59:15.793Z,1.33
2018-10-03T04:01:44.383Z,1.27
2018-10-03T04:04:13.294Z,1.23
2018-10-03T04:06:42.173Z,1.40
2018-10-03T04:09:10.350Z,1.47
2018-10-03T04:11:39.645Z,1.47
2018-10-03T04:14:08.477Z,1.40
2018-10-03T04:16:36.721Z,1.47
2018-10-03T04:19:05.501Z,1.30
2018-10-03T04:21:37.389Z,1.03
2018-10-03T04:24:07.249Z,1.57
2018-10-03T04:26:37.014Z,1.23
2018-10-03T04:29:06.049Z,1.30
2018-10-03T04:31:36.661Z,1.20
2018-10-03T04:34:05.989Z,0.90
2018-10-03T04:36:35.358Z,0.70
2018-10-03T04:39:05.944Z,1.20
2018-10-03T04:41:36.184Z,1.70
2018-10-03T04:44:04.997Z,1.37
2018-10-03T04:46:33.744Z,0.80
2018-10-03T04:49:02.215Z,1.43
2018-10-03T04:51:30.842Z,1.57
2018-10-03T04:54:00.065Z,1.30
2018-10-03T04:56:29.826Z,1.00
2018-10-03T04:59:00.225Z,1.60
2018-10-03T05:01:29.781Z,1.27
2018-10-03T05:03:58.289Z,1.40
2018-10-03T05:06:26.357Z,1.10
2018-10-03T05:08:54.426Z,1.50
2018-10-03T05:11:23.542Z,1.55
2018-10-03T05:13:52.937Z,1.30
2018-10-03T05:16:21.229Z,3.45
2018-10-03T05:18:51.013Z,1.43
2018-10-03T05:21:19.634Z,1.37
2018-10-03T05:23:48.017Z,1.10
2018-10-03T05:26:16.115Z,1.30
2018-10-03T05:28:45.406Z,1.27
2018-10-03T05:31:16.120Z,1.60
2018-10-03T05:33:44.422Z,1.07
2018-10-03T05:36:13.963Z,1.00
2018-10-03T05:38:43.717Z,0.93
2018-10-03T05:41:12.933Z,1.30
2018-10-03T05:43:41.086Z,1.63
2018-10-03T05:46:09.871Z,1.23
2018-10-03T05:48:38.640Z,1.60
2018-10-03T05:51:07.453Z,0.93
2018-10-03T05:53:35.981Z,0.90
2018-10-03T05:56:05.745Z,1.20
2018-10-03T05:58:35.193Z,1.00
2018-10-03T06:01:03.397Z,1.00
2018-10-03T06:03:32.179Z,0.90
2018-10-03T06:06:00.787Z,0.73
2018-10-03T06:08:29.004Z,1.05
2018-10-03T06:10:57.293Z,0.93
2018-10-03T06:13:25.341Z,0.80
2018-10-03T06:15:55.280Z,1.30
2018-10-03T06:18:23.607Z,0.90
2018-10-03T06:20:52.125Z,1.10
2018-10-03T06:23:20.817Z,0.85
2018-10-03T06:25:50.513Z,1.30
2018-10-03T06:28:18.661Z,0.97
2018-10-03T06:30:46.726Z,1.00
2018-10-03T06:33:14.937Z,1.00
2018-10-03T06:35:42.998Z,1.23
2018-10-03T06:38:11.889Z,1.50
2018-10-03T06:40:41.645Z,0.83
2018-10-03T06:43:09.723Z,0.97
2018-10-03T06:45:37.928Z,1.37
2018-10-03T06:48:06.557Z,1.27
2018-10-03T06:50:34.655Z,1.20
2018-10-03T06:53:03.793Z,1.20
2018-10-03T06:55:32.065Z,1.47
2018-10-03T06:58:00.161Z,1.10
2018-10-03T07:00:29.669Z,2.72
2018-10-03T07:02:57.725Z,0.90
2018-10-03T07:05:27.054Z,0.90
2018-10-03T07:07:56.113Z,1.27
2018-10-03T07:10:26.010Z,1.33
2018-10-03T07:12:54.599Z,1.10
2018-10-03T07:15:22.710Z,0.73
2018-10-03T07:17:51.650Z,0.97
2018-10-03T07:20:20.728Z,1.00
2018-10-03T07:22:49.145Z,0.87
2018-10-03T07:25:17.362Z,1.53
2018-10-03T07:27:46.726Z,1.07
2018-10-03T07:30:14.845Z,1.17
2018-10-03T07:32:43.130Z,1.00
2018-10-03T07:35:11.550Z,0.70
2018-10-03T07:37:39.654Z,0.63
2018-10-03T07:40:08.543Z,0.80
2018-10-03T07:42:36.897Z,0.90
2018-10-03T07:45:05.859Z,0.70
2018-10-03T07:47:33.927Z,0.77
2018-10-03T07:50:02.333Z,1.10
2018-10-03T07:52:31.530Z,0.50
2018-10-03T07:54:59.667Z,0.80
2018-10-03T07:57:27.714Z,0.90
2018-10-03T07:59:58.053Z,1.20
2018-10-03T08:02:26.137Z,1.07
2018-10-03T08:04:55.387Z,0.90
2018-10-03T08:07:23.577Z,0.98
2018-10-03T08:09:51.689Z,0.77
2018-10-03T08:12:19.753Z,1.12
2018-10-03T08:14:47.989Z,0.80
2018-10-03T08:17:16.144Z,0.70
2018-10-03T08:19:44.340Z,1.20
2018-10-03T08:22:13.373Z,1.30
2018-10-03T08:24:43.018Z,1.40
2018-10-03T08:27:11.490Z,0.87
2018-10-03T08:29:39.937Z,0.90
2018-10-03T08:32:09.065Z,0.97
2018-10-03T08:34:37.542Z,0.67
2018-10-03T08:37:06.106Z,1.17
2018-10-03T08:39:34.276Z,0.63
2018-10-03T08:42:03.100Z,0.70
2018-10-03T08:44:31.207Z,0.80
2018-10-03T08:46:59.741Z,0.73
2018-10-03T08:49:27.937Z,0.62
2018-10-03T08:51:56.608Z,0.70
2018-10-03T08:54:24.666Z,0.70
2018-10-03T08:56:53.365Z,1.10
2018-10-03T08:59:21.533Z,0.78
2018-10-03T09:01:49.925Z,0.73
2018-10-03T09:04:19.048Z,0.73
2018-10-03T09:06:47.635Z,0.80
2018-10-03T09:09:15.790Z,0.73
2018-10-03T09:11:44.555Z,0.63
2018-10-03T09:14:13.317Z,0.90
2018-10-03T09:16:42.246Z,0.80
2018-10-03T09:19:10.458Z,0.60
2018-10-03T09:21:39.941Z,0.73
2018-10-03T09:24:08.582Z,0.90
2018-10-03T09:26:37.409Z,0.80
2018-10-03T09:29:06.557Z,0.70
2018-10-03T09:31:34.973Z,0.60
2018-10-03T09:34:03.452Z,0.50
2018-10-03T09:36:31.706Z,0.37
2018-10-03T09:39:01.231Z,0.57
2018-10-03T09:41:29.948Z,1.00
2018-10-03T09:43:59.549Z,0.50
2018-10-03T09:46:29.243Z,0.53
2018-10-03T09:48:57.830Z,0.50
2018-10-03T09:51:26.199Z,0.70
2018-10-03T09:53:55.465Z,0.40
2018-10-03T09:56:24.377Z,0.70
2018-10-03T09:58:54.033Z,0.50
2018-10-03T10:01:28.931Z,0.70
2018-10-03T10:03:58.211Z,0.53
2018-10-03T10:06:26.709Z,0.93
2018-10-03T10:08:54.993Z,0.40
2018-10-03T10:11:23.843Z,1.37
2018-10-03T10:13:51.754Z,0.60
2018-10-03T10:16:20.232Z,0.57
2018-10-03T10:18:48.354Z,0.30
2018-10-03T10:21:16.784Z,0.67
2018-10-03T10:23:45.797Z,0.60
2018-10-03T10:26:14.621Z,0.80
2018-10-03T10:28:43.174Z,1.37
2018-10-03T10:31:11.313Z,0.90
2018-10-03T10:33:39.617Z,0.47
2018-10-03T10:36:12.075Z,0.53
2018-10-03T10:38:40.618Z,0.87
2018-10-03T10:41:09.393Z,0.63
2018-10-03T10:43:37.478Z,0.57
2018-10-03T10:46:05.870Z,0.40
2018-10-03T10:48:34.028Z,0.60
2018-10-03T10:51:03.310Z,0.57
2018-10-03T10:53:31.731Z,0.72
2018-10-03T10:56:00.341Z,0.70
2018-10-03T10:58:28.513Z,0.50
2018-10-03T11:00:57.392Z,0.80
2018-10-03T11:03:25.711Z,0.87
2018-10-03T11:05:54.133Z,0.43
2018-10-03T11:08:22.345Z,0.50
2018-10-03T11:10:51.331Z,0.50
2018-10-03T11:13:21.273Z,0.43
2018-10-03T11:15:50.379Z,0.70
2018-10-03T11:18:19.762Z,0.47
2018-10-03T11:20:48.889Z,0.53
2018-10-03T11:23:17.798Z,0.50
2018-10-03T11:25:47.002Z,0.60
2018-10-03T11:28:16.297Z,0.40
2018-10-03T11:30:45.113Z,0.60
2018-10-03T11:33:14.301Z,0.70
2018-10-03T11:35:43.010Z,0.80
2018-10-03T11:38:11.419Z,0.43
2018-10-03T11:40:40.221Z,0.50
2018-10-03T11:43:09.149Z,0.53
2018-10-03T11:45:37.842Z,0.60
2018-10-03T11:48:05.949Z,0.80
2018-10-03T11:50:34.266Z,0.47
2018-10-03T11:53:03.230Z,0.55
2018-10-03T11:55:33.198Z,0.87
2018-10-03T11:58:01.285Z,0.50
2018-10-03T12:00:29.745Z,0.40
2018-10-03T12:02:58.317Z,0.50
2018-10-03T12:05:26.325Z,0.50
2018-10-03T12:07:55.557Z,0.85
2018-10-03T12:10:24.617Z,0.50
2018-10-03T12:12:53.534Z,0.30
2018-10-03T12:15:22.501Z,0.40
2018-10-03T12:17:51.410Z,0.27
2018-10-03T12:20:19.498Z,0.37
2018-10-03T12:22:48.218Z,0.40
2018-10-03T12:25:16.906Z,0.43
2018-10-03T12:27:45.301Z,0.27
2018-10-03T12:30:13.606Z,0.20
2018-10-03T12:32:42.822Z,0.40
2018-10-03T12:35:11.353Z,0.33
2018-10-03T12:37:40.475Z,0.30
2018-10-03T12:40:08.941Z,0.63
2018-10-03T12:42:37.525Z,0.40
2018-10-03T12:45:05.912Z,0.40
2018-10-03T12:47:34.162Z,0.67
2018-10-03T12:50:02.621Z,0.50
2018-10-03T12:52:31.074Z,0.33
2018-10-03T12:55:01.107Z,0.43
2018-10-03T12:57:29.947Z,0.47
2018-10-03T12:59:58.166Z,0.60
2018-10-03T13:02:26.402Z,0.50
2018-10-03T13:04:54.601Z,0.57
2018-10-03T13:07:23.067Z,0.40
2018-10-03T13:09:51.456Z,0.50
2018-10-03T13:12:20.855Z,0.50
2018-10-03T13:14:49.065Z,0.80
2018-10-03T13:17:17.257Z,0.60
2018-10-03T13:19:46.130Z,0.40
2018-10-03T13:22:16.937Z,0.53
2018-10-03T13:24:46.098Z,0.50
2018-10-03T13:27:14.854Z,0.50
2018-10-03T13:29:44.090Z,0.53
2018-10-03T13:32:12.214Z,0.50
2018-10-03T13:34:40.982Z,0.60
2018-10-03T13:37:11.173Z,0.77
2018-10-03T13:39:39.610Z,0.40
2018-10-03T13:42:09.116Z,0.50
2018-10-03T13:44:37.381Z,0.77
2018-10-03T13:47:12.721Z,0.80
2018-10-03T13:49:42.070Z,0.50
2018-10-03T13:52:10.807Z,0.70
2018-10-03T13:54:39.029Z,0.60
2018-10-03T13:57:08.630Z,0.50
2018-10-03T13:59:37.373Z,0.60
2018-10-03T14:02:06.198Z,0.57
2018-10-03T14:04:35.446Z,0.50
2018-10-03T14:07:03.637Z,1.20
2018-10-03T14:09:33.389Z,0.68
2018-10-03T14:12:02.375Z,0.53
2018-10-03T14:14:30.900Z,0.73
2018-10-03T14:16:59.717Z,0.60
2018-10-03T14:19:27.779Z,0.70
2018-10-03T14:21:56.973Z,0.77
2018-10-03T14:24:27.170Z,0.40
2018-10-03T14:26:55.945Z,0.70
2018-10-03T14:29:24.796Z,0.83
2018-10-03T14:31:53.545Z,0.87
2018-10-03T14:34:23.004Z,0.68
2018-10-03T14:36:51.109Z,0.67
2018-10-03T14:39:19.629Z,1.07
2018-10-03T14:41:47.938Z,0.70
2018-10-03T14:44:17.285Z,0.63
2018-10-03T14:46:47.240Z,0.80
2018-10-03T14:49:16.257Z,0.80
2018-10-03T14:51:45.658Z,0.67
2018-10-03T14:54:14.153Z,0.47
2018-10-03T14:56:43.338Z,0.80
2018-10-03T14:59:16.785Z,1.17
2018-10-03T15:01:44.979Z,0.87
2018-10-03T15:04:13.531Z,0.60
2018-10-03T15:06:42.758Z,0.83
2018-10-03T15:09:11.581Z,0.70
2018-10-03T15:11:40.455Z,0.37
2018-10-03T15:14:08.895Z,0.60
2018-10-03T15:16:38.642Z,0.33
2018-10-03T15:19:07.641Z,0.77
2018-10-03T15:21:36.613Z,0.53
2018-10-03T15:24:05.209Z,1.03
2018-10-03T15:26:34.529Z,0.50
2018-10-03T15:29:03.633Z,0.70
2018-10-03T15:31:31.793Z,0.75
2018-10-03T15:34:00.027Z,0.50
2018-10-03T15:36:28.577Z,0.73
2018-10-03T15:38:57.858Z,0.70
2018-10-03T15:41:25.994Z,0.87
2018-10-03T15:43:55.059Z,1.00
2018-10-03T15:46:24.739Z,0.55
2018-10-03T15:48:53.569Z,0.90
2018-10-03T15:51:21.862Z,0.72
2018-10-03T15:54:21.291Z,0.70
2018-10-03T15:56:49.665Z,0.70
2018-10-03T15:59:18.061Z,0.30
2018-10-03T16:01:46.955Z,0.60
2018-10-03T16:04:15.669Z,0.60
2018-10-03T16:06:44.817Z,0.57
2018-10-03T16:09:13.313Z,0.60
2018-10-03T16:11:42.100Z,0.50
2018-10-03T16:14:10.671Z,0.77
2018-10-03T16:16:39.445Z,0.90
2018-10-03T16:19:07.906Z,0.47
2018-10-03T16:21:37.549Z,0.67
2018-10-03T16:24:05.644Z,0.70
2018-10-03T16:26:34.361Z,0.60
2018-10-03T16:29:03.201Z,0.60
2018-10-03T16:31:31.565Z,0.70
2018-10-03T16:34:00.189Z,0.70
2018-10-03T16:36:29.520Z,0.87
2018-10-03T16:41:41.410Z,0.53
2018-10-03T16:44:10.020Z,0.80
2018-10-03T16:46:38.814Z,0.37
2018-10-03T16:49:08.360Z,0.73
2018-10-03T16:51:37.157Z,0.67
2018-10-03T16:54:06.090Z,0.60
2018-10-03T16:56:35.410Z,0.50
2018-10-03T16:59:04.362Z,0.93
2018-10-03T17:01:33.181Z,0.70
2018-10-03T17:04:02.425Z,0.30
2018-10-03T17:06:30.508Z,0.80
2018-10-03T17:08:58.602Z,0.70
2018-10-03T17:11:27.247Z,0.60
2018-10-03T17:14:34.293Z,0.90
2018-10-03T17:17:03.611Z,1.07
2018-10-03T17:19:31.745Z,0.63
2018-10-03T17:22:00.435Z,0.70
2018-10-03T17:24:30.180Z,0.80
2018-10-03T17:26:59.545Z,0.70
2018-10-03T17:29:28.264Z,1.37
2018-10-03T17:31:57.017Z,0.63
2018-10-03T17:34:26.062Z,1.03
2018-10-03T17:36:55.061Z,1.00
2018-10-03T17:39:30.731Z,0.60
2018-10-03T17:41:58.930Z,0.70
2018-10-03T17:44:27.188Z,1.20
2018-10-03T17:46:57.297Z,0.90
2018-10-03T17:49:25.665Z,0.60
2018-10-03T17:51:54.492Z,0.80
2018-10-03T17:54:22.637Z,0.90
2018-10-03T17:56:50.835Z,0.73
2018-10-03T17:59:19.198Z,1.20
2018-10-03T18:01:57.707Z,0.70
2018-10-03T18:04:26.986Z,0.50
2018-10-03T18:06:55.500Z,0.83
2018-10-03T18:09:23.621Z,0.80
2018-10-03T18:11:52.353Z,1.00
2018-10-03T18:14:20.655Z,0.60
2018-10-03T18:16:49.029Z,1.13
2018-10-03T18:19:18.290Z,1.10
2018-10-03T18:21:47.789Z,0.80
2018-10-03T18:24:16.162Z,1.00
2018-10-03T18:26:44.570Z,0.80
2018-10-03T18:29:14.037Z,0.97
2018-10-03T18:31:42.135Z,1.17
2018-10-03T18:34:10.363Z,1.37
2018-10-03T18:36:38.489Z,0.70
2018-10-03T18:39:07.857Z,0.90
2018-10-03T18:41:35.985Z,0.73
2018-10-03T18:44:04.682Z,0.90
2018-10-03T18:46:32.838Z,1.07
2018-10-03T18:49:02.383Z,0.80
2018-10-03T18:51:30.456Z,0.80
2018-10-03T18:53:59.538Z,0.67
2018-10-03T18:56:28.001Z,0.80
2018-10-03T18:58:56.247Z,0.90
2018-10-03T19:01:24.419Z,1.12
2018-10-03T19:03:52.495Z,0.80
2018-10-03T19:06:20.753Z,0.90
2018-10-03T19:08:49.500Z,0.70
2018-10-03T19:11:17.685Z,0.70
2018-10-03T19:13:45.965Z,0.90
2018-10-03T19:16:14.138Z,0.73
2018-10-03T19:18:43.425Z,1.10
2018-10-03T19:21:12.274Z,1.73
2018-10-03T19:23:40.773Z,1.00
2018-10-03T19:26:10.218Z,1.20
2018-10-03T19:28:38.933Z,1.37
2018-10-03T19:31:07.253Z,1.53
2018-10-03T19:33:35.573Z,0.93
2018-10-03T19:36:03.964Z,1.20
2018-10-03T19:38:32.073Z,1.25
2018-10-03T19:41:00.273Z,1.20
2018-10-03T19:43:28.530Z,1.37
2018-10-03T19:45:56.673Z,1.07
2018-10-03T19:48:24.981Z,1.00
2018-10-03T19:50:54.294Z,1.00
2018-10-03T19:53:28.345Z,1.07
2018-10-03T19:55:58.425Z,1.47
2018-10-03T19:58:26.518Z,1.47
2018-10-03T20:00:55.249Z,1.70
2018-10-03T20:03:23.341Z,1.67
2018-10-03T20:05:51.511Z,1.60
2018-10-03T20:08:21.658Z,1.50
2018-10-03T20:10:50.841Z,1.20
2018-10-03T20:13:19.469Z,1.13
2018-10-03T20:15:48.237Z,1.13
2018-10-03T20:18:16.923Z,1.67
2018-10-03T20:20:46.103Z,0.90
2018-10-03T20:23:14.181Z,0.83
2018-10-03T20:25:44.229Z,1.03
2018-10-03T20:28:13.285Z,0.83
2018-10-03T20:30:42.603Z,1.30
2018-10-03T20:33:11.736Z,0.90
2018-10-03T20:35:42.020Z,0.80
2018-10-03T20:38:11.266Z,1.37
2018-10-03T20:40:39.628Z,1.00
2018-10-03T20:43:08.208Z,1.10
2018-10-03T20:45:37.811Z,3.07
2018-10-03T20:48:07.048Z,0.90
2018-10-03T20:50:35.481Z,0.90
2018-10-03T20:53:03.787Z,0.80
2018-10-03T20:55:31.915Z,0.70
2018-10-03T20:58:00.752Z,1.00
2018-10-03T21:00:28.830Z,0.85
2018-10-03T21:02:56.977Z,0.70
2018-10-03T21:05:25.908Z,0.70
2018-10-03T21:07:54.634Z,1.00
2018-10-03T21:10:22.693Z,0.80
2018-10-03T21:15:26.357Z,0.70
2018-10-03T21:17:55.254Z,0.60
2018-10-03T21:20:24.517Z,0.50
2018-10-03T21:22:53.153Z,0.77
2018-10-03T21:25:22.066Z,0.70
2018-10-03T21:27:51.293Z,0.73
2018-10-03T21:30:20.058Z,0.83
2018-10-03T21:32:48.653Z,0.67
2018-10-03T21:35:18.210Z,0.50
2018-10-03T21:37:47.677Z,1.73
2018-10-03T21:40:16.949Z,1.20
2018-10-03T21:42:45.286Z,0.57
2018-10-03T21:45:13.930Z,0.90
2018-10-03T21:47:42.914Z,1.00
2018-10-03T21:50:10.989Z,0.80
2018-10-03T21:52:39.873Z,0.77
2018-10-03T21:55:08.905Z,0.43
2018-10-03T21:57:38.225Z,0.70
2018-10-03T22:00:07.910Z,0.97
2018-10-03T22:02:37.077Z,0.80
2018-10-03T22:05:08.752Z,0.67
2018-10-03T22:07:37.937Z,0.63
2018-10-03T22:10:07.209Z,0.70
2018-10-03T22:12:36.265Z,0.80
2018-10-03T22:15:04.835Z,0.50
2018-10-03T22:17:40.870Z,0.97
2018-10-03T22:20:10.493Z,0.50
2018-10-03T22:22:40.868Z,1.00
2018-10-03T22:25:09.226Z,0.93
2018-10-03T22:27:38.321Z,1.30
2018-10-03T22:30:07.185Z,0.60
2018-10-03T22:32:36.489Z,1.20
2018-10-03T22:35:04.702Z,1.10
2018-10-03T22:37:33.222Z,0.90
2018-10-03T22:40:03.097Z,0.77
2018-10-03T22:42:31.513Z,0.80
2018-10-03T22:45:00.825Z,0.90
2018-10-03T22:47:28.999Z,0.88
2018-10-03T22:49:57.083Z,0.97
2018-10-03T22:52:26.014Z,1.02
2018-10-03T22:54:55.696Z,0.80
2018-10-03T22:57:23.810Z,0.90
2018-10-03T22:59:53.084Z,1.03
2018-10-03T23:02:21.205Z,1.03
2018-10-03T23:04:49.698Z,1.13
2018-10-03T23:07:19.741Z,0.60
2018-10-03T23:09:48.031Z,1.00
2018-10-03T23:12:16.273Z,0.90
2018-10-03T23:14:44.453Z,1.00
2018-10-03T23:17:14.139Z,1.20
2018-10-03T23:19:42.397Z,0.80
2018-10-03T23:22:11.515Z,1.07
2018-10-03T23:24:39.813Z,0.90
2018-10-03T23:27:08.007Z,1.03
2018-10-03T23:29:37.685Z,1.13
2018-10-03T23:32:06.234Z,1.47
2018-10-03T23:34:34.458Z,1.22
2018-10-03T23:37:03.473Z,1.20
2018-10-03T23:39:31.829Z,1.47
2018-10-03T23:42:00.572Z,0.83
2018-10-03T23:44:28.972Z,1.30
2018-10-03T23:46:58.405Z,1.30
2018-10-03T23:49:26.525Z,1.13
2018-10-03T23:51:55.645Z,1.07
2018-10-03T23:54:23.809Z,1.17
2018-10-03T23:56:51.890Z,1.30
2018-10-03T23:59:20.133Z,1.10
